sensor_id;sensor_type;location;lat;lon;timestamp;P1;durP1;ratioP1;P2;durP2;ratioP2
70927;SDS011;58587;53.034;18.576;2023-05-23T00:00:33;14.67;;;9.07;;
70927;SDS011;58587;53.034;18.576;2023-05-23T00:03:00;15.95;;;9.70;;
70927;SDS011;58587;53.034;18.576;2023-05-23T00:05:26;15.95;;;9.70;;
70927;SDS011;58587;53.034;18.576;2023-05-23T00:07:53;16.90;;;9.53;;
70927;SDS011;58587;53.034;18.576;2023-05-23T00:10:18;17.73;;;9.35;;
70927;SDS011;58587;53.034;18.576;2023-05-23T00:12:44;18.10;;;10.47;;
70927;SDS011;58587;53.034;18.576;2023-05-23T00:15:12;18.38;;;9.77;;
70927;SDS011;58587;53.034;18.576;2023-05-23T00:17:38;18.83;;;9.30;;
70927;SDS011;58587;53.034;18.576;2023-05-23T00:20:04;15.93;;;9.30;;
70927;SDS011;58587;53.034;18.576;2023-05-23T00:22:33;16.25;;;9.55;;
70927;SDS011;58587;53.034;18.576;2023-05-23T00:24:59;18.63;;;10.38;;
70927;SDS011;58587;53.034;18.576;2023-05-23T00:27:26;19.97;;;11.07;;
70927;SDS011;58587;53.034;18.576;2023-05-23T00:29:51;21.23;;;11.27;;
70927;SDS011;58587;53.034;18.576;2023-05-23T00:32:16;22.35;;;10.20;;
70927;SDS011;58587;53.034;18.576;2023-05-23T00:34:41;15.87;;;9.20;;
70927;SDS011;58587;53.034;18.576;2023-05-23T00:37:08;15.63;;;9.40;;
70927;SDS011;58587;53.034;18.576;2023-05-23T00:39:33;19.02;;;10.32;;
70927;SDS011;58587;53.034;18.576;2023-05-23T00:42:02;22.47;;;12.40;;
70927;SDS011;58587;53.034;18.576;2023-05-23T00:44:28;21.75;;;11.98;;
70927;SDS011;58587;53.034;18.576;2023-05-23T00:46:54;19.10;;;10.90;;
70927;SDS011;58587;53.034;18.576;2023-05-23T00:49:21;17.80;;;9.65;;
70927;SDS011;58587;53.034;18.576;2023-05-23T00:51:47;17.73;;;9.47;;
70927;SDS011;58587;53.034;18.576;2023-05-23T00:54:28;16.02;;;8.77;;
70927;SDS011;58587;53.034;18.576;2023-05-23T00:56:55;16.23;;;9.75;;
70927;SDS011;58587;53.034;18.576;2023-05-23T00:59:22;19.60;;;10.77;;
70927;SDS011;58587;53.034;18.576;2023-05-23T01:01:49;21.70;;;10.57;;
70927;SDS011;58587;53.034;18.576;2023-05-23T01:04:15;20.05;;;10.85;;
70927;SDS011;58587;53.034;18.576;2023-05-23T01:06:40;18.83;;;9.90;;
70927;SDS011;58587;53.034;18.576;2023-05-23T01:09:11;15.63;;;9.30;;
70927;SDS011;58587;53.034;18.576;2023-05-23T01:11:41;14.63;;;9.18;;
70927;SDS011;58587;53.034;18.576;2023-05-23T01:14:16;19.90;;;11.27;;
70927;SDS011;58587;53.034;18.576;2023-05-23T01:16:59;22.27;;;10.65;;
70927;SDS011;58587;53.034;18.576;2023-05-23T01:19:48;19.20;;;10.00;;
70927;SDS011;58587;53.034;18.576;2023-05-23T01:23:10;18.70;;;9.90;;
70927;SDS011;58587;53.034;18.576;2023-05-23T01:25:17;17.35;;;9.93;;
70927;SDS011;58587;53.034;18.576;2023-05-23T01:27:50;17.33;;;10.38;;
70927;SDS011;58587;53.034;18.576;2023-05-23T01:30:19;18.42;;;10.20;;
70927;SDS011;58587;53.034;18.576;2023-05-23T01:32:45;17.23;;;9.93;;
70927;SDS011;58587;53.034;18.576;2023-05-23T01:35:17;16.67;;;9.63;;
70927;SDS011;58587;53.034;18.576;2023-05-23T01:37:46;20.48;;;9.73;;
70927;SDS011;58587;53.034;18.576;2023-05-23T01:40:11;21.70;;;10.97;;
70927;SDS011;58587;53.034;18.576;2023-05-23T01:42:36;21.30;;;12.00;;
70927;SDS011;58587;53.034;18.576;2023-05-23T01:45:02;21.30;;;11.33;;
70927;SDS011;58587;53.034;18.576;2023-05-23T01:47:28;16.30;;;10.25;;
70927;SDS011;58587;53.034;18.576;2023-05-23T01:49:53;16.87;;;9.90;;
70927;SDS011;58587;53.034;18.576;2023-05-23T01:52:21;21.83;;;10.20;;
70927;SDS011;58587;53.034;18.576;2023-05-23T01:54:47;20.63;;;10.75;;
70927;SDS011;58587;53.034;18.576;2023-05-23T01:57:14;24.23;;;11.75;;
70927;SDS011;58587;53.034;18.576;2023-05-23T01:59:40;22.67;;;11.60;;
70927;SDS011;58587;53.034;18.576;2023-05-23T02:02:05;19.93;;;11.07;;
70927;SDS011;58587;53.034;18.576;2023-05-23T02:04:30;20.70;;;10.33;;
70927;SDS011;58587;53.034;18.576;2023-05-23T02:06:56;20.20;;;10.55;;
70927;SDS011;58587;53.034;18.576;2023-05-23T02:09:21;17.43;;;9.70;;
70927;SDS011;58587;53.034;18.576;2023-05-23T02:11:46;18.30;;;9.80;;
70927;SDS011;58587;53.034;18.576;2023-05-23T02:14:12;15.27;;;9.37;;
70927;SDS011;58587;53.034;18.576;2023-05-23T02:16:37;15.30;;;10.10;;
70927;SDS011;58587;53.034;18.576;2023-05-23T02:19:02;17.33;;;10.40;;
70927;SDS011;58587;53.034;18.576;2023-05-23T02:21:28;16.90;;;9.55;;
70927;SDS011;58587;53.034;18.576;2023-05-23T02:23:53;15.87;;;9.37;;
70927;SDS011;58587;53.034;18.576;2023-05-23T02:26:19;14.63;;;9.10;;
70927;SDS011;58587;53.034;18.576;2023-05-23T02:28:44;18.70;;;10.93;;
70927;SDS011;58587;53.034;18.576;2023-05-23T02:31:09;18.77;;;11.17;;
70927;SDS011;58587;53.034;18.576;2023-05-23T02:33:35;20.88;;;11.23;;
70927;SDS011;58587;53.034;18.576;2023-05-23T02:36:00;17.73;;;10.15;;
70927;SDS011;58587;53.034;18.576;2023-05-23T02:38:26;16.90;;;9.53;;
70927;SDS011;58587;53.034;18.576;2023-05-23T02:40:51;18.13;;;8.90;;
70927;SDS011;58587;53.034;18.576;2023-05-23T02:43:17;15.00;;;9.45;;
70927;SDS011;58587;53.034;18.576;2023-05-23T02:45:44;19.17;;;10.40;;
70927;SDS011;58587;53.034;18.576;2023-05-23T02:48:10;24.50;;;11.73;;
70927;SDS011;58587;53.034;18.576;2023-05-23T02:50:36;28.42;;;11.90;;
70927;SDS011;58587;53.034;18.576;2023-05-23T02:53:01;22.27;;;10.10;;
70927;SDS011;58587;53.034;18.576;2023-05-23T02:55:26;19.60;;;10.40;;
70927;SDS011;58587;53.034;18.576;2023-05-23T02:57:52;17.55;;;10.05;;
70927;SDS011;58587;53.034;18.576;2023-05-23T03:00:18;25.87;;;12.87;;
70927;SDS011;58587;53.034;18.576;2023-05-23T03:02:43;26.43;;;12.70;;
70927;SDS011;58587;53.034;18.576;2023-05-23T03:05:09;21.05;;;10.63;;
70927;SDS011;58587;53.034;18.576;2023-05-23T03:07:34;26.08;;;12.43;;
70927;SDS011;58587;53.034;18.576;2023-05-23T03:10:00;72.35;;;36.55;;
70927;SDS011;58587;53.034;18.576;2023-05-23T03:12:29;51.35;;;29.38;;
70927;SDS011;58587;53.034;18.576;2023-05-23T03:14:54;23.88;;;15.85;;
70927;SDS011;58587;53.034;18.576;2023-05-23T03:17:19;20.10;;;11.50;;
70927;SDS011;58587;53.034;18.576;2023-05-23T03:19:45;15.30;;;9.70;;
70927;SDS011;58587;53.034;18.576;2023-05-23T03:22:10;20.17;;;9.93;;
70927;SDS011;58587;53.034;18.576;2023-05-23T03:24:36;20.80;;;9.77;;
70927;SDS011;58587;53.034;18.576;2023-05-23T03:27:01;19.10;;;9.07;;
70927;SDS011;58587;53.034;18.576;2023-05-23T03:29:27;15.77;;;9.20;;
70927;SDS011;58587;53.034;18.576;2023-05-23T03:31:52;14.50;;;8.93;;
70927;SDS011;58587;53.034;18.576;2023-05-23T03:34:17;21.57;;;10.20;;
70927;SDS011;58587;53.034;18.576;2023-05-23T03:36:43;17.98;;;9.43;;
70927;SDS011;58587;53.034;18.576;2023-05-23T03:39:08;17.10;;;8.87;;
70927;SDS011;58587;53.034;18.576;2023-05-23T03:41:33;13.43;;;8.60;;
70927;SDS011;58587;53.034;18.576;2023-05-23T03:43:59;14.57;;;8.43;;
70927;SDS011;58587;53.034;18.576;2023-05-23T03:46:24;15.00;;;8.50;;
70927;SDS011;58587;53.034;18.576;2023-05-23T03:48:50;18.40;;;8.88;;
70927;SDS011;58587;53.034;18.576;2023-05-23T03:51:15;17.83;;;9.37;;
70927;SDS011;58587;53.034;18.576;2023-05-23T03:53:41;18.87;;;9.37;;
70927;SDS011;58587;53.034;18.576;2023-05-23T03:56:06;16.10;;;9.55;;
70927;SDS011;58587;53.034;18.576;2023-05-23T03:58:32;18.20;;;8.87;;
70927;SDS011;58587;53.034;18.576;2023-05-23T04:00:57;16.17;;;8.17;;
70927;SDS011;58587;53.034;18.576;2023-05-23T04:03:22;15.37;;;8.30;;
70927;SDS011;58587;53.034;18.576;2023-05-23T04:05:48;14.33;;;8.33;;
70927;SDS011;58587;53.034;18.576;2023-05-23T04:08:13;18.95;;;9.80;;
70927;SDS011;58587;53.034;18.576;2023-05-23T04:10:39;12.97;;;8.33;;
70927;SDS011;58587;53.034;18.576;2023-05-23T04:13:05;15.43;;;8.13;;
70927;SDS011;58587;53.034;18.576;2023-05-23T04:15:30;12.57;;;7.65;;
70927;SDS011;58587;53.034;18.576;2023-05-23T04:17:58;10.57;;;7.25;;
70927;SDS011;58587;53.034;18.576;2023-05-23T04:20:23;12.30;;;7.43;;
70927;SDS011;58587;53.034;18.576;2023-05-23T04:22:49;11.47;;;6.90;;
70927;SDS011;58587;53.034;18.576;2023-05-23T04:25:14;9.40;;;6.97;;
70927;SDS011;58587;53.034;18.576;2023-05-23T04:27:42;11.02;;;6.60;;
70927;SDS011;58587;53.034;18.576;2023-05-23T04:30:08;9.45;;;6.60;;
70927;SDS011;58587;53.034;18.576;2023-05-23T04:32:34;9.87;;;6.80;;
70927;SDS011;58587;53.034;18.576;2023-05-23T04:35:00;10.13;;;6.45;;
70927;SDS011;58587;53.034;18.576;2023-05-23T04:37:26;12.35;;;6.93;;
70927;SDS011;58587;53.034;18.576;2023-05-23T04:39:51;12.10;;;6.93;;
70927;SDS011;58587;53.034;18.576;2023-05-23T04:42:17;10.20;;;6.17;;
70927;SDS011;58587;53.034;18.576;2023-05-23T04:44:48;9.48;;;6.32;;
70927;SDS011;58587;53.034;18.576;2023-05-23T04:47:14;10.88;;;6.57;;
70927;SDS011;58587;53.034;18.576;2023-05-23T04:49:39;9.67;;;6.17;;
70927;SDS011;58587;53.034;18.576;2023-05-23T04:52:06;9.23;;;6.40;;
70927;SDS011;58587;53.034;18.576;2023-05-23T04:54:31;10.40;;;6.37;;
70927;SDS011;58587;53.034;18.576;2023-05-23T04:56:57;10.33;;;6.60;;
70927;SDS011;58587;53.034;18.576;2023-05-23T04:59:22;10.53;;;6.87;;
70927;SDS011;58587;53.034;18.576;2023-05-23T05:01:48;11.97;;;6.53;;
70927;SDS011;58587;53.034;18.576;2023-05-23T05:04:13;11.27;;;6.70;;
70927;SDS011;58587;53.034;18.576;2023-05-23T05:06:39;11.18;;;6.85;;
70927;SDS011;58587;53.034;18.576;2023-05-23T05:09:05;10.90;;;6.70;;
70927;SDS011;58587;53.034;18.576;2023-05-23T05:11:30;11.30;;;6.57;;
70927;SDS011;58587;53.034;18.576;2023-05-23T06:12:51;7.18;;;3.63;;
70927;SDS011;58587;53.034;18.576;2023-05-23T06:15:17;6.47;;;4.57;;
70927;SDS011;58587;53.034;18.576;2023-05-23T06:17:43;8.90;;;4.13;;
70927;SDS011;58587;53.034;18.576;2023-05-23T06:20:08;8.07;;;3.80;;
70927;SDS011;58587;53.034;18.576;2023-05-23T06:22:34;5.95;;;3.92;;
70927;SDS011;58587;53.034;18.576;2023-05-23T06:25:00;7.78;;;4.00;;
70927;SDS011;58587;53.034;18.576;2023-05-23T06:27:26;5.17;;;3.60;;
70927;SDS011;58587;53.034;18.576;2023-05-23T06:29:51;7.90;;;4.07;;
70927;SDS011;58587;53.034;18.576;2023-05-23T06:32:16;6.83;;;4.00;;
70927;SDS011;58587;53.034;18.576;2023-05-23T06:34:41;8.33;;;3.90;;
70927;SDS011;58587;53.034;18.576;2023-05-23T06:37:07;6.53;;;3.97;;
70927;SDS011;58587;53.034;18.576;2023-05-23T06:39:32;10.60;;;4.03;;
70927;SDS011;58587;53.034;18.576;2023-05-23T06:41:57;8.70;;;4.13;;
70927;SDS011;58587;53.034;18.576;2023-05-23T06:44:23;107.77;;;12.23;;
70927;SDS011;58587;53.034;18.576;2023-05-23T06:46:48;36.83;;;6.67;;
70927;SDS011;58587;53.034;18.576;2023-05-23T06:49:13;6.07;;;3.67;;
70927;SDS011;58587;53.034;18.576;2023-05-23T06:51:39;8.13;;;3.33;;
70927;SDS011;58587;53.034;18.576;2023-05-23T06:54:04;5.27;;;3.40;;
70927;SDS011;58587;53.034;18.576;2023-05-23T06:56:30;9.90;;;3.60;;
70927;SDS011;58587;53.034;18.576;2023-05-23T06:58:55;5.33;;;3.73;;
70927;SDS011;58587;53.034;18.576;2023-05-23T07:01:21;9.77;;;3.30;;
70927;SDS011;58587;53.034;18.576;2023-05-23T07:03:46;7.03;;;2.93;;
70927;SDS011;58587;53.034;18.576;2023-05-23T07:06:11;6.55;;;3.08;;
70927;SDS011;58587;53.034;18.576;2023-05-23T07:08:37;5.17;;;2.73;;
70927;SDS011;58587;53.034;18.576;2023-05-23T07:11:03;6.57;;;2.97;;
70927;SDS011;58587;53.034;18.576;2023-05-23T07:13:29;7.18;;;3.42;;
70927;SDS011;58587;53.034;18.576;2023-05-23T07:15:54;4.95;;;3.53;;
70927;SDS011;58587;53.034;18.576;2023-05-23T07:18:20;5.33;;;2.90;;
70927;SDS011;58587;53.034;18.576;2023-05-23T07:20:46;6.10;;;2.90;;
70927;SDS011;58587;53.034;18.576;2023-05-23T07:23:11;8.80;;;3.23;;
70927;SDS011;58587;53.034;18.576;2023-05-23T07:25:36;4.97;;;3.20;;
70927;SDS011;58587;53.034;18.576;2023-05-23T07:28:04;5.07;;;3.10;;
70927;SDS011;58587;53.034;18.576;2023-05-23T07:30:29;6.47;;;2.90;;
70927;SDS011;58587;53.034;18.576;2023-05-23T07:32:55;5.87;;;3.30;;
70927;SDS011;58587;53.034;18.576;2023-05-23T07:35:20;5.20;;;3.10;;
70927;SDS011;58587;53.034;18.576;2023-05-23T07:37:50;5.50;;;3.15;;
70927;SDS011;58587;53.034;18.576;2023-05-23T07:40:18;3.72;;;2.65;;
70927;SDS011;58587;53.034;18.576;2023-05-23T07:42:43;6.07;;;2.95;;
70927;SDS011;58587;53.034;18.576;2023-05-23T07:45:09;4.47;;;3.07;;
70927;SDS011;58587;53.034;18.576;2023-05-23T07:47:35;4.40;;;3.20;;
70927;SDS011;58587;53.034;18.576;2023-05-23T07:50:00;6.53;;;2.70;;
70927;SDS011;58587;53.034;18.576;2023-05-23T07:52:27;4.83;;;2.97;;
70927;SDS011;58587;53.034;18.576;2023-05-23T07:54:54;3.25;;;2.95;;
70927;SDS011;58587;53.034;18.576;2023-05-23T07:57:19;3.60;;;3.00;;
70927;SDS011;58587;53.034;18.576;2023-05-23T07:59:44;6.00;;;2.60;;
70927;SDS011;58587;53.034;18.576;2023-05-23T08:02:10;4.10;;;2.30;;
70927;SDS011;58587;53.034;18.576;2023-05-23T08:04:35;3.33;;;2.20;;
70927;SDS011;58587;53.034;18.576;2023-05-23T08:07:00;15.77;;;3.20;;
70927;SDS011;58587;53.034;18.576;2023-05-23T08:09:26;4.37;;;3.00;;
70927;SDS011;58587;53.034;18.576;2023-05-23T08:11:51;5.00;;;3.00;;
70927;SDS011;58587;53.034;18.576;2023-05-23T08:14:17;3.92;;;2.35;;
70927;SDS011;58587;53.034;18.576;2023-05-23T08:16:42;4.00;;;2.40;;
70927;SDS011;58587;53.034;18.576;2023-05-23T08:19:07;4.03;;;2.30;;
70927;SDS011;58587;53.034;18.576;2023-05-23T08:21:33;6.03;;;2.30;;
70927;SDS011;58587;53.034;18.576;2023-05-23T08:24:00;5.57;;;2.40;;
70927;SDS011;58587;53.034;18.576;2023-05-23T08:26:25;4.13;;;2.47;;
70927;SDS011;58587;53.034;18.576;2023-05-23T08:28:51;7.32;;;2.63;;
70927;SDS011;58587;53.034;18.576;2023-05-23T08:31:17;3.77;;;2.50;;
70927;SDS011;58587;53.034;18.576;2023-05-23T08:33:42;5.07;;;3.10;;
70927;SDS011;58587;53.034;18.576;2023-05-23T08:36:08;6.43;;;2.63;;
70927;SDS011;58587;53.034;18.576;2023-05-23T08:38:34;6.07;;;2.27;;
70927;SDS011;58587;53.034;18.576;2023-05-23T08:40:59;4.10;;;2.53;;
70927;SDS011;58587;53.034;18.576;2023-05-23T08:43:26;19.35;;;3.72;;
70927;SDS011;58587;53.034;18.576;2023-05-23T08:45:52;9.10;;;2.53;;
70927;SDS011;58587;53.034;18.576;2023-05-23T08:48:18;3.80;;;2.43;;
70927;SDS011;58587;53.034;18.576;2023-05-23T08:50:45;4.03;;;2.72;;
70927;SDS011;58587;53.034;18.576;2023-05-23T08:53:15;3.80;;;2.55;;
70927;SDS011;58587;53.034;18.576;2023-05-23T08:55:44;4.77;;;2.67;;
70927;SDS011;58587;53.034;18.576;2023-05-23T08:58:12;3.08;;;2.45;;
70927;SDS011;58587;53.034;18.576;2023-05-23T09:00:37;4.57;;;2.85;;
70927;SDS011;58587;53.034;18.576;2023-05-23T09:03:03;6.47;;;2.67;;
70927;SDS011;58587;53.034;18.576;2023-05-23T09:05:28;4.80;;;2.60;;
70927;SDS011;58587;53.034;18.576;2023-05-23T09:07:54;5.13;;;2.60;;
70927;SDS011;58587;53.034;18.576;2023-05-23T09:10:20;4.15;;;2.58;;
70927;SDS011;58587;53.034;18.576;2023-05-23T09:12:46;4.30;;;2.63;;
70927;SDS011;58587;53.034;18.576;2023-05-23T09:15:11;3.20;;;2.60;;
70927;SDS011;58587;53.034;18.576;2023-05-23T09:17:37;6.27;;;2.80;;
70927;SDS011;58587;53.034;18.576;2023-05-23T09:20:03;6.63;;;2.88;;
70927;SDS011;58587;53.034;18.576;2023-05-23T09:22:36;7.13;;;2.70;;
70927;SDS011;58587;53.034;18.576;2023-05-23T09:25:01;8.87;;;3.13;;
70927;SDS011;58587;53.034;18.576;2023-05-23T09:27:26;4.53;;;2.70;;
70927;SDS011;58587;53.034;18.576;2023-05-23T09:29:52;5.17;;;2.77;;
70927;SDS011;58587;53.034;18.576;2023-05-23T09:32:17;5.32;;;2.58;;
70927;SDS011;58587;53.034;18.576;2023-05-23T09:40:05;6.20;;;2.95;;
70927;SDS011;58587;53.034;18.576;2023-05-23T09:42:36;4.07;;;2.70;;
70927;SDS011;58587;53.034;18.576;2023-05-23T09:45:06;5.95;;;3.50;;
70927;SDS011;58587;53.034;18.576;2023-05-23T09:47:32;3.10;;;2.37;;
70927;SDS011;58587;53.034;18.576;2023-05-23T09:49:57;6.83;;;3.07;;
70927;SDS011;58587;53.034;18.576;2023-05-23T09:52:22;5.68;;;2.78;;
70927;SDS011;58587;53.034;18.576;2023-05-23T09:54:48;3.80;;;2.67;;
70927;SDS011;58587;53.034;18.576;2023-05-23T09:57:14;6.03;;;2.60;;
70927;SDS011;58587;53.034;18.576;2023-05-23T09:59:44;4.68;;;3.08;;
70927;SDS011;58587;53.034;18.576;2023-05-23T10:08:15;5.37;;;3.23;;
70927;SDS011;58587;53.034;18.576;2023-05-23T10:13:21;5.28;;;3.30;;
70927;SDS011;58587;53.034;18.576;2023-05-23T10:15:50;4.20;;;3.00;;
70927;SDS011;58587;53.034;18.576;2023-05-23T10:18:24;6.90;;;3.30;;
70927;SDS011;58587;53.034;18.576;2023-05-23T10:20:53;4.23;;;2.90;;
70927;SDS011;58587;53.034;18.576;2023-05-23T10:23:24;4.30;;;3.05;;
70927;SDS011;58587;53.034;18.576;2023-05-23T10:25:51;19.65;;;5.30;;
70927;SDS011;58587;53.034;18.576;2023-05-23T10:28:16;4.63;;;3.60;;
70927;SDS011;58587;53.034;18.576;2023-05-23T10:30:42;6.45;;;3.63;;
70927;SDS011;58587;53.034;18.576;2023-05-23T10:33:08;3.75;;;3.33;;
70927;SDS011;58587;53.034;18.576;2023-05-23T10:41:10;5.30;;;2.90;;
70927;SDS011;58587;53.034;18.576;2023-05-23T10:46:48;3.63;;;2.90;;
70927;SDS011;58587;53.034;18.576;2023-05-23T10:49:18;5.37;;;2.83;;
70927;SDS011;58587;53.034;18.576;2023-05-23T10:51:48;4.82;;;3.35;;
70927;SDS011;58587;53.034;18.576;2023-05-23T10:54:17;3.63;;;3.05;;
70927;SDS011;58587;53.034;18.576;2023-05-23T10:56:44;3.05;;;2.78;;
70927;SDS011;58587;53.034;18.576;2023-05-23T10:59:18;5.60;;;3.08;;
70927;SDS011;58587;53.034;18.576;2023-05-23T11:01:45;5.87;;;3.20;;
70927;SDS011;58587;53.034;18.576;2023-05-23T11:04:11;4.68;;;3.00;;
70927;SDS011;58587;53.034;18.576;2023-05-23T11:06:40;3.43;;;2.93;;
70927;SDS011;58587;53.034;18.576;2023-05-23T11:09:10;6.03;;;2.80;;
70927;SDS011;58587;53.034;18.576;2023-05-23T11:14:15;5.10;;;3.05;;
70927;SDS011;58587;53.034;18.576;2023-05-23T11:16:41;3.97;;;2.97;;
70927;SDS011;58587;53.034;18.576;2023-05-23T11:21:42;8.02;;;2.70;;
70927;SDS011;58587;53.034;18.576;2023-05-23T11:24:09;3.72;;;2.92;;
70927;SDS011;58587;53.034;18.576;2023-05-23T11:26:34;2.83;;;2.47;;
70927;SDS011;58587;53.034;18.576;2023-05-23T11:29:00;8.03;;;3.27;;
70927;SDS011;58587;53.034;18.576;2023-05-23T11:31:27;4.18;;;2.95;;
70927;SDS011;58587;53.034;18.576;2023-05-23T11:33:53;2.80;;;2.50;;
70927;SDS011;58587;53.034;18.576;2023-05-23T11:36:22;4.68;;;3.03;;
70927;SDS011;58587;53.034;18.576;2023-05-23T11:38:48;3.80;;;2.83;;
70927;SDS011;58587;53.034;18.576;2023-05-23T11:41:16;3.88;;;2.70;;
70927;SDS011;58587;53.034;18.576;2023-05-23T11:43:48;4.55;;;3.00;;
70927;SDS011;58587;53.034;18.576;2023-05-23T11:46:17;3.97;;;2.70;;
70927;SDS011;58587;53.034;18.576;2023-05-23T11:48:48;4.53;;;3.22;;
70927;SDS011;58587;53.034;18.576;2023-05-23T11:51:14;4.97;;;2.90;;
70927;SDS011;58587;53.034;18.576;2023-05-23T11:53:41;4.72;;;2.88;;
70927;SDS011;58587;53.034;18.576;2023-05-23T11:56:06;4.97;;;2.73;;
70927;SDS011;58587;53.034;18.576;2023-05-23T11:58:32;3.67;;;2.50;;
70927;SDS011;58587;53.034;18.576;2023-05-23T12:43:07;4.25;;;2.45;;
70927;SDS011;58587;53.034;18.576;2023-05-23T12:45:35;3.67;;;2.42;;
70927;SDS011;58587;53.034;18.576;2023-05-23T12:48:01;6.03;;;2.50;;
70927;SDS011;58587;53.034;18.576;2023-05-23T12:50:27;4.57;;;2.60;;
70927;SDS011;58587;53.034;18.576;2023-05-23T12:52:53;3.70;;;2.60;;
70927;SDS011;58587;53.034;18.576;2023-05-23T12:55:18;8.50;;;2.75;;
70927;SDS011;58587;53.034;18.576;2023-05-23T12:57:43;4.20;;;2.90;;
70927;SDS011;58587;53.034;18.576;2023-05-23T13:00:09;26.67;;;3.70;;
70927;SDS011;58587;53.034;18.576;2023-05-23T13:02:35;5.03;;;2.75;;
70927;SDS011;58587;53.034;18.576;2023-05-23T13:05:01;6.53;;;3.07;;
70927;SDS011;58587;53.034;18.576;2023-05-23T13:07:26;5.13;;;2.93;;
70927;SDS011;58587;53.034;18.576;2023-05-23T13:09:51;4.72;;;2.47;;
70927;SDS011;58587;53.034;18.576;2023-05-23T13:12:17;3.70;;;2.70;;
70927;SDS011;58587;53.034;18.576;2023-05-23T13:14:42;3.70;;;2.90;;
70927;SDS011;58587;53.034;18.576;2023-05-23T13:17:08;5.30;;;2.83;;
70927;SDS011;58587;53.034;18.576;2023-05-23T13:19:33;6.60;;;2.80;;
70927;SDS011;58587;53.034;18.576;2023-05-23T13:21:59;4.47;;;3.03;;
70927;SDS011;58587;53.034;18.576;2023-05-23T13:24:25;6.10;;;3.10;;
70927;SDS011;58587;53.034;18.576;2023-05-23T13:26:51;4.20;;;3.00;;
70927;SDS011;58587;53.034;18.576;2023-05-23T13:29:16;5.78;;;3.05;;
70927;SDS011;58587;53.034;18.576;2023-05-23T13:31:42;5.40;;;3.87;;
70927;SDS011;58587;53.034;18.576;2023-05-23T13:34:07;6.97;;;3.40;;
70927;SDS011;58587;53.034;18.576;2023-05-23T13:36:33;3.10;;;2.80;;
70927;SDS011;58587;53.034;18.576;2023-05-23T13:38:59;5.03;;;2.88;;
70927;SDS011;58587;53.034;18.576;2023-05-23T13:41:25;6.73;;;2.70;;
70927;SDS011;58587;53.034;18.576;2023-05-23T13:43:51;7.30;;;2.67;;
70927;SDS011;58587;53.034;18.576;2023-05-23T13:46:16;5.53;;;2.87;;
70927;SDS011;58587;53.034;18.576;2023-05-23T13:48:42;8.93;;;2.90;;
70927;SDS011;58587;53.034;18.576;2023-05-23T13:51:07;4.43;;;2.47;;
70927;SDS011;58587;53.034;18.576;2023-05-23T13:53:32;4.57;;;2.60;;
70927;SDS011;58587;53.034;18.576;2023-05-23T13:55:58;3.90;;;2.60;;
70927;SDS011;58587;53.034;18.576;2023-05-23T13:58:23;4.30;;;3.30;;
70927;SDS011;58587;53.034;18.576;2023-05-23T14:00:49;3.80;;;2.80;;
70927;SDS011;58587;53.034;18.576;2023-05-23T14:03:14;7.23;;;3.00;;
70927;SDS011;58587;53.034;18.576;2023-05-23T14:05:39;6.70;;;3.50;;
70927;SDS011;58587;53.034;18.576;2023-05-23T14:08:05;6.03;;;2.73;;
70927;SDS011;58587;53.034;18.576;2023-05-23T14:10:30;4.47;;;2.67;;
70927;SDS011;58587;53.034;18.576;2023-05-23T14:12:57;5.93;;;2.60;;
70927;SDS011;58587;53.034;18.576;2023-05-23T14:15:22;9.55;;;2.60;;
70927;SDS011;58587;53.034;18.576;2023-05-23T14:17:48;5.83;;;2.60;;
70927;SDS011;58587;53.034;18.576;2023-05-23T14:20:19;4.95;;;2.67;;
70927;SDS011;58587;53.034;18.576;2023-05-23T14:22:44;3.17;;;2.40;;
70927;SDS011;58587;53.034;18.576;2023-05-23T14:25:10;7.33;;;2.53;;
70927;SDS011;58587;53.034;18.576;2023-05-23T14:27:35;9.73;;;3.00;;
70927;SDS011;58587;53.034;18.576;2023-05-23T14:30:00;4.07;;;2.40;;
70927;SDS011;58587;53.034;18.576;2023-05-23T14:32:26;3.53;;;2.27;;
70927;SDS011;58587;53.034;18.576;2023-05-23T14:34:51;6.03;;;2.77;;
70927;SDS011;58587;53.034;18.576;2023-05-23T14:37:16;3.83;;;2.70;;
70927;SDS011;58587;53.034;18.576;2023-05-23T14:39:42;5.35;;;3.20;;
70927;SDS011;58587;53.034;18.576;2023-05-23T14:42:07;4.07;;;2.67;;
70927;SDS011;58587;53.034;18.576;2023-05-23T14:44:32;4.90;;;2.37;;
70927;SDS011;58587;53.034;18.576;2023-05-23T14:46:58;4.07;;;2.80;;
70927;SDS011;58587;53.034;18.576;2023-05-23T14:49:23;3.28;;;2.50;;
70927;SDS011;58587;53.034;18.576;2023-05-23T14:51:49;3.53;;;2.67;;
70927;SDS011;58587;53.034;18.576;2023-05-23T14:54:14;3.67;;;2.57;;
70927;SDS011;58587;53.034;18.576;2023-05-23T14:56:40;6.00;;;2.40;;
70927;SDS011;58587;53.034;18.576;2023-05-23T14:59:05;4.97;;;2.53;;
70927;SDS011;58587;53.034;18.576;2023-05-23T15:01:31;2.78;;;2.47;;
70927;SDS011;58587;53.034;18.576;2023-05-23T15:03:57;4.73;;;2.43;;
70927;SDS011;58587;53.034;18.576;2023-05-23T15:06:22;3.80;;;2.60;;
70927;SDS011;58587;53.034;18.576;2023-05-23T15:08:48;6.17;;;2.80;;
70927;SDS011;58587;53.034;18.576;2023-05-23T15:11:13;7.43;;;2.80;;
70927;SDS011;58587;53.034;18.576;2023-05-23T15:13:42;2.93;;;2.63;;
70927;SDS011;58587;53.034;18.576;2023-05-23T15:16:07;5.30;;;2.55;;
70927;SDS011;58587;53.034;18.576;2023-05-23T15:18:33;4.60;;;2.73;;
70927;SDS011;58587;53.034;18.576;2023-05-23T15:20:58;7.87;;;3.10;;
70927;SDS011;58587;53.034;18.576;2023-05-23T15:23:23;4.55;;;3.00;;
70927;SDS011;58587;53.034;18.576;2023-05-23T15:25:49;6.43;;;2.73;;
70927;SDS011;58587;53.034;18.576;2023-05-23T15:28:14;5.37;;;2.67;;
70927;SDS011;58587;53.034;18.576;2023-05-23T15:30:41;4.43;;;2.47;;
70927;SDS011;58587;53.034;18.576;2023-05-23T15:33:07;4.80;;;2.42;;
70927;SDS011;58587;53.034;18.576;2023-05-23T15:35:32;5.17;;;2.83;;
70927;SDS011;58587;53.034;18.576;2023-05-23T15:37:58;5.28;;;2.72;;
70927;SDS011;58587;53.034;18.576;2023-05-23T15:40:23;4.27;;;2.70;;
70927;SDS011;58587;53.034;18.576;2023-05-23T15:42:48;5.13;;;2.57;;
70927;SDS011;58587;53.034;18.576;2023-05-23T15:45:14;5.67;;;2.43;;
70927;SDS011;58587;53.034;18.576;2023-05-23T15:47:39;5.53;;;3.05;;
70927;SDS011;58587;53.034;18.576;2023-05-23T15:50:05;6.07;;;2.80;;
70927;SDS011;58587;53.034;18.576;2023-05-23T15:52:31;5.47;;;2.83;;
70927;SDS011;58587;53.034;18.576;2023-05-23T15:54:56;4.27;;;2.63;;
70927;SDS011;58587;53.034;18.576;2023-05-23T15:57:22;4.70;;;2.97;;
70927;SDS011;58587;53.034;18.576;2023-05-23T15:59:47;2.90;;;2.50;;
70927;SDS011;58587;53.034;18.576;2023-05-23T16:02:12;5.27;;;2.87;;
70927;SDS011;58587;53.034;18.576;2023-05-23T16:04:40;4.88;;;2.83;;
70927;SDS011;58587;53.034;18.576;2023-05-23T16:07:05;5.93;;;2.63;;
70927;SDS011;58587;53.034;18.576;2023-05-23T16:09:30;5.70;;;2.90;;
70927;SDS011;58587;53.034;18.576;2023-05-23T16:11:56;5.40;;;3.10;;
70927;SDS011;58587;53.034;18.576;2023-05-23T16:14:22;6.43;;;3.40;;
70927;SDS011;58587;53.034;18.576;2023-05-23T16:16:47;5.07;;;2.90;;
70927;SDS011;58587;53.034;18.576;2023-05-23T16:19:13;4.73;;;2.77;;
70927;SDS011;58587;53.034;18.576;2023-05-23T16:21:38;4.57;;;2.90;;
70927;SDS011;58587;53.034;18.576;2023-05-23T16:24:04;3.93;;;2.80;;
70927;SDS011;58587;53.034;18.576;2023-05-23T16:26:29;4.70;;;2.85;;
70927;SDS011;58587;53.034;18.576;2023-05-23T16:28:55;5.13;;;2.93;;
70927;SDS011;58587;53.034;18.576;2023-05-23T16:31:24;7.30;;;2.70;;